createdAt,value
2024-02-06T00:01:53.622Z,98997.00
2024-02-06T00:04:23.076Z,99001.00
2024-02-06T00:06:53.423Z,99016.00
2024-02-06T00:09:30.902Z,99015.00
2024-02-06T00:12:03.313Z,99011.00
2024-02-06T00:14:33.695Z,99021.00
2024-02-06T00:17:03.080Z,99032.00
2024-02-06T00:19:32.547Z,99036.00
2024-02-06T00:22:01.915Z,99043.00
2024-02-06T00:24:31.239Z,99040.00
2024-02-06T00:27:01.713Z,99038.00
2024-02-06T00:29:31.502Z,99039.00
2024-02-06T00:32:00.825Z,99050.00
2024-02-06T00:34:33.101Z,99054.00
2024-02-06T00:37:02.569Z,99054.00
2024-02-06T00:39:33.025Z,99056.00
2024-02-06T00:42:02.507Z,99058.00
2024-02-06T00:44:31.821Z,99065.00
2024-02-06T00:47:04.388Z,99064.00
2024-02-06T00:49:36.130Z,99066.00
2024-02-06T00:52:07.611Z,99065.00
2024-02-06T00:54:36.991Z,99076.00
2024-02-06T00:57:06.656Z,99074.00
2024-02-06T00:59:38.764Z,99072.00
2024-02-06T01:02:08.837Z,99077.00
2024-02-06T01:04:38.319Z,99083.00
2024-02-06T01:07:07.875Z,99087.00
2024-02-06T01:09:37.299Z,99099.00
2024-02-06T01:12:07.137Z,99093.00
2024-02-06T01:14:39.113Z,99096.00
2024-02-06T01:17:09.188Z,99109.00
2024-02-06T01:19:39.161Z,99109.00
2024-02-06T01:22:09.252Z,99113.00
2024-02-06T01:24:38.714Z,99120.00
2024-02-06T01:27:08.042Z,99124.00
2024-02-06T01:29:37.375Z,99125.00
2024-02-06T01:32:07.716Z,99136.00
2024-02-06T01:34:37.243Z,99139.00
2024-02-06T01:37:06.770Z,99136.00
2024-02-06T01:39:36.127Z,99141.00
2024-02-06T01:42:06.849Z,99143.00
2024-02-06T01:44:36.251Z,99145.00
2024-02-06T01:47:06.198Z,99149.00
2024-02-06T01:49:36.789Z,99155.00
2024-02-06T01:52:08.808Z,99159.00
2024-02-06T01:54:39.212Z,99167.00
2024-02-06T01:57:09.493Z,99174.00
2024-02-06T01:59:39.039Z,99171.00
2024-02-06T02:02:09.835Z,99175.00
2024-02-06T02:04:39.368Z,99172.00
2024-02-06T02:07:09.725Z,99180.00
2024-02-06T02:09:39.259Z,99179.00
2024-02-06T02:12:08.929Z,99184.00
2024-02-06T02:14:38.431Z,99189.00
2024-02-06T02:17:07.868Z,99194.00
2024-02-06T02:19:37.837Z,99193.00
2024-02-06T02:22:07.787Z,99198.00
2024-02-06T02:24:37.329Z,99200.00
2024-02-06T02:27:08.436Z,99204.00
2024-02-06T02:29:40.906Z,99202.00
2024-02-06T02:32:12.044Z,99207.00
2024-02-06T02:34:41.679Z,99202.00
2024-02-06T02:37:11.126Z,99199.00
2024-02-06T02:39:40.652Z,99202.00
2024-02-06T02:42:10.393Z,99204.00
2024-02-06T02:44:39.633Z,99212.00
2024-02-06T02:47:09.156Z,99205.00
2024-02-06T02:49:38.764Z,99203.00
2024-02-06T02:52:10.034Z,99203.00
2024-02-06T02:54:39.410Z,99206.00
2024-02-06T02:57:09.175Z,99207.00
2024-02-06T02:59:38.685Z,99207.00
2024-02-06T03:02:08.382Z,99206.00
2024-02-06T03:04:37.815Z,99197.00
2024-02-06T03:07:07.466Z,99187.00
2024-02-06T03:09:39.164Z,99190.00
2024-02-06T03:12:09.601Z,99193.00
2024-02-06T03:14:39.033Z,99193.00
2024-02-06T03:17:08.600Z,99190.00
2024-02-06T03:19:38.219Z,99195.00
2024-02-06T03:22:07.711Z,99196.00
2024-02-06T03:24:37.047Z,99186.00
2024-02-06T03:27:10.162Z,99180.00
2024-02-06T03:29:39.459Z,99194.00
2024-02-06T03:32:09.035Z,99185.00
2024-02-06T03:34:38.707Z,99190.00
2024-02-06T03:37:08.090Z,99180.00
2024-02-06T03:39:37.337Z,99190.00
2024-02-06T03:42:07.099Z,99186.00
2024-02-06T03:44:36.418Z,99189.00
2024-02-06T03:47:05.907Z,99185.00
2024-02-06T03:49:35.298Z,99186.00
2024-02-06T03:52:04.986Z,99181.00
2024-02-06T03:54:34.385Z,99174.00
2024-02-06T03:57:03.741Z,99167.00
2024-02-06T03:59:33.257Z,99166.00
2024-02-06T04:02:02.646Z,99162.00
2024-02-06T04:04:32.306Z,99165.00
2024-02-06T04:07:02.027Z,99163.00
2024-02-06T04:09:31.357Z,99172.00
2024-02-06T04:12:00.751Z,99157.00
2024-02-06T04:14:30.092Z,99154.00
2024-02-06T04:17:00.921Z,99147.00
2024-02-06T04:19:30.395Z,99143.00
2024-02-06T04:22:00.284Z,99151.00
2024-02-06T04:24:29.757Z,99144.00
2024-02-06T04:26:59.097Z,99140.00
2024-02-06T04:29:28.574Z,99140.00
2024-02-06T04:31:57.842Z,99124.00
2024-02-06T04:34:27.208Z,99123.00
2024-02-06T04:36:56.651Z,99117.00
2024-02-06T04:39:26.125Z,99107.00
2024-02-06T04:41:55.478Z,99103.00
2024-02-06T04:44:24.837Z,99100.00
2024-02-06T04:46:55.334Z,99108.00
2024-02-06T04:49:24.688Z,99095.00
2024-02-06T04:51:54.050Z,99104.00
2024-02-06T04:54:23.802Z,99095.00
2024-02-06T04:56:53.069Z,99091.00
2024-02-06T04:59:22.446Z,99090.00
2024-02-06T05:01:51.873Z,99099.00
2024-02-06T05:04:21.326Z,99091.00
2024-02-06T05:06:52.080Z,99084.00
2024-02-06T05:09:21.428Z,99089.00
2024-02-06T05:11:50.769Z,99078.00
2024-02-06T05:14:20.530Z,99082.00
2024-02-06T05:16:49.874Z,99076.00
2024-02-06T05:19:21.456Z,99062.00
2024-02-06T05:21:51.398Z,99058.00
2024-02-06T05:24:20.630Z,99052.00
2024-02-06T05:26:49.999Z,99041.00
2024-02-06T05:29:19.291Z,99043.00
2024-02-06T05:31:48.670Z,99032.00
2024-02-06T05:34:18.294Z,99024.00
2024-02-06T05:36:47.746Z,99012.00
2024-02-06T05:39:17.242Z,99009.00
2024-02-06T05:41:46.696Z,99005.00
2024-02-06T05:44:16.100Z,98997.00
2024-02-06T05:46:45.730Z,98996.00
2024-02-06T05:49:15.359Z,98987.00
2024-02-06T05:51:44.703Z,98981.00
2024-02-06T05:54:14.125Z,98971.00
2024-02-06T05:56:43.427Z,98958.00
2024-02-06T05:59:13.049Z,98959.00
2024-02-06T06:01:42.387Z,98949.00
2024-02-06T06:04:12.804Z,98957.00
2024-02-06T06:06:42.293Z,98939.00
2024-02-06T06:09:11.737Z,98941.00
2024-02-06T06:11:40.959Z,98938.00
2024-02-06T06:14:10.441Z,98943.00
2024-02-06T06:16:39.798Z,98933.00
2024-02-06T06:19:09.387Z,98933.00
2024-02-06T06:21:43.202Z,98934.00
2024-02-06T06:24:15.019Z,98928.00
2024-02-06T06:26:44.452Z,98933.00
2024-02-06T06:29:13.771Z,98930.00
2024-02-06T06:31:43.262Z,98925.00
2024-02-06T06:34:12.741Z,98918.00
2024-02-06T06:36:42.123Z,98917.00
2024-02-06T06:39:13.509Z,98912.00
2024-02-06T06:41:43.381Z,98909.00
2024-02-06T06:44:12.682Z,98914.00
2024-02-06T06:46:42.359Z,98905.00
2024-02-06T06:49:12.072Z,98908.00
2024-02-06T06:51:41.483Z,98900.00
2024-02-06T06:54:13.929Z,98899.00
2024-02-06T06:56:43.344Z,98895.00
2024-02-06T06:59:12.723Z,98889.00
2024-02-06T07:01:42.025Z,98892.00
2024-02-06T07:04:12.937Z,98885.00
2024-02-06T07:06:42.313Z,98886.00
2024-02-06T07:09:11.779Z,98881.00
2024-02-06T07:11:41.080Z,98884.00
2024-02-06T07:14:10.419Z,98876.00
2024-02-06T07:16:39.835Z,98874.00
2024-02-06T07:19:09.618Z,98867.00
2024-02-06T07:21:39.985Z,98859.00
2024-02-06T07:24:09.760Z,98857.00
2024-02-06T07:26:41.047Z,98851.00
2024-02-06T07:29:10.485Z,98852.00
2024-02-06T07:31:39.798Z,98848.00
2024-02-06T07:34:09.590Z,98844.00
2024-02-06T07:36:39.058Z,98840.00
2024-02-06T07:39:08.873Z,98843.00
2024-02-06T07:41:38.458Z,98835.00
2024-02-06T07:44:08.578Z,98832.00
2024-02-06T07:46:38.027Z,98835.00
2024-02-06T07:49:07.568Z,98826.00
2024-02-06T07:51:36.979Z,98821.00
2024-02-06T07:54:06.383Z,98821.00
2024-02-06T07:56:35.638Z,98828.00
2024-02-06T07:59:05.446Z,98823.00
2024-02-06T08:01:36.011Z,98822.00
2024-02-06T08:04:06.227Z,98815.00
2024-02-06T08:06:36.236Z,98812.00
2024-02-06T08:09:05.985Z,98805.00
2024-02-06T08:11:35.610Z,98812.00
2024-02-06T08:14:12.993Z,98801.00
2024-02-06T08:16:45.435Z,98807.00
2024-02-06T08:19:16.066Z,98796.00
2024-02-06T08:21:45.942Z,98794.00
2024-02-06T08:24:15.318Z,98788.00
2024-02-06T08:26:44.748Z,98783.00
2024-02-06T08:29:14.047Z,98788.00
2024-02-06T08:31:44.063Z,98788.00
2024-02-06T08:34:14.315Z,98778.00
2024-02-06T08:36:44.317Z,98778.00
2024-02-06T08:39:13.722Z,98777.00
2024-02-06T08:41:43.129Z,98771.00
2024-02-06T08:44:12.651Z,98777.00
2024-02-06T08:46:42.243Z,98781.00
2024-02-06T08:49:12.150Z,98783.00
2024-02-06T08:51:41.542Z,98776.00
2024-02-06T08:54:11.357Z,98778.00
2024-02-06T08:56:43.426Z,98773.00
2024-02-06T08:59:13.026Z,98767.00
2024-02-06T09:01:44.561Z,98764.00
2024-02-06T09:04:14.335Z,98761.00
2024-02-06T09:06:43.788Z,98751.00
2024-02-06T09:09:14.764Z,98747.00
2024-02-06T09:11:44.605Z,98747.00
2024-02-06T09:14:13.900Z,98746.00
2024-02-06T09:16:43.350Z,98741.00
2024-02-06T09:19:13.460Z,98742.00
2024-02-06T09:21:42.920Z,98734.00
2024-02-06T09:24:12.235Z,98737.00
2024-02-06T09:26:41.584Z,98740.00
2024-02-06T09:29:10.878Z,98740.00
2024-02-06T09:31:40.970Z,98737.00
2024-02-06T09:34:10.436Z,98734.00
2024-02-06T09:36:40.710Z,98737.00
2024-02-06T09:39:12.093Z,98734.00
2024-02-06T09:41:45.566Z,98734.00
2024-02-06T09:44:16.645Z,98741.00
2024-02-06T09:46:52.224Z,98736.00
2024-02-06T09:49:22.083Z,98739.00
2024-02-06T09:51:53.207Z,98736.00
2024-02-06T09:54:28.076Z,98735.00
2024-02-06T09:56:59.115Z,98731.00
2024-02-06T09:59:30.120Z,98735.00
2024-02-06T10:02:00.871Z,98734.00
2024-02-06T10:04:38.177Z,98734.00
2024-02-06T10:07:07.751Z,98726.00
2024-02-06T10:09:39.302Z,98729.00
2024-02-06T10:12:09.701Z,98727.00
2024-02-06T10:14:39.169Z,98728.00
2024-02-06T10:17:11.319Z,98731.00
2024-02-06T10:19:42.019Z,98727.00
2024-02-06T10:22:14.449Z,98729.00
2024-02-06T10:24:44.040Z,98729.00
2024-02-06T10:27:13.305Z,98732.00
2024-02-06T10:29:42.561Z,98728.00
2024-02-06T10:32:18.954Z,98732.00
2024-02-06T10:34:49.173Z,98728.00
2024-02-06T10:37:18.931Z,98732.00
2024-02-06T10:39:48.289Z,98729.00
2024-02-06T10:42:53.578Z,98731.00
2024-02-06T10:45:18.142Z,98732.00
2024-02-06T10:47:57.439Z,98734.00
2024-02-06T10:50:29.010Z,98741.00
2024-02-06T10:52:59.242Z,98739.00
2024-02-06T10:55:28.852Z,98737.00
2024-02-06T10:58:24.113Z,98743.00
2024-02-06T11:00:56.239Z,98743.00
2024-02-06T11:03:28.646Z,98737.00
2024-02-06T11:06:14.106Z,98752.00
2024-02-06T11:08:44.708Z,98747.00
2024-02-06T11:11:15.207Z,98745.00
2024-02-06T11:13:52.965Z,98748.00
2024-02-06T11:16:26.356Z,98750.00
2024-02-06T11:19:38.683Z,98751.00
2024-02-06T11:22:40.823Z,98749.00
2024-02-06T11:25:17.306Z,98754.00
2024-02-06T11:27:49.809Z,98754.00
2024-02-06T11:30:19.882Z,98750.00
2024-02-06T11:32:49.263Z,98750.00
2024-02-06T11:35:29.732Z,98753.00
2024-02-06T11:37:59.612Z,98752.00
2024-02-06T11:40:30.998Z,98752.00
2024-02-06T11:43:07.746Z,98753.00
2024-02-06T11:45:44.424Z,98753.00
2024-02-06T11:48:14.366Z,98761.00
2024-02-06T11:50:48.441Z,98759.00
2024-02-06T11:53:18.899Z,98755.00
2024-02-06T11:55:49.160Z,98753.00
2024-02-06T11:58:18.891Z,98757.00
2024-02-06T12:00:48.410Z,98759.00
2024-02-06T12:03:17.878Z,98761.00
2024-02-06T12:05:47.874Z,98761.00
2024-02-06T12:08:23.275Z,98769.00
2024-02-06T12:10:53.087Z,98765.00
2024-02-06T12:13:23.966Z,98770.00
2024-02-06T12:15:53.931Z,98769.00
2024-02-06T12:18:24.724Z,98765.00
2024-02-06T12:20:54.698Z,98766.00
2024-02-06T12:23:25.183Z,98767.00
2024-02-06T12:25:54.604Z,98774.00
2024-02-06T12:28:25.264Z,98774.00
2024-02-06T12:31:03.370Z,98780.00
2024-02-06T12:33:40.886Z,98783.00
2024-02-06T12:36:11.935Z,98785.00
2024-02-06T12:38:41.757Z,98787.00
2024-02-06T12:41:11.141Z,98794.00
2024-02-06T12:43:40.623Z,98797.00
2024-02-06T12:46:10.932Z,98805.00
2024-02-06T12:48:40.570Z,98810.00
2024-02-06T12:51:10.638Z,98808.00
2024-02-06T12:53:40.083Z,98815.00
2024-02-06T12:56:10.114Z,98816.00
2024-02-06T12:58:39.962Z,98820.00
2024-02-06T13:01:10.793Z,98826.00
2024-02-06T13:03:40.777Z,98832.00
2024-02-06T13:06:11.323Z,98835.00
2024-02-06T13:08:48.153Z,98834.00
2024-02-06T13:11:20.173Z,98834.00
2024-02-06T13:13:55.291Z,98837.00
2024-02-06T13:16:25.044Z,98836.00
2024-02-06T13:19:04.179Z,98846.00
2024-02-06T13:21:45.152Z,98846.00
2024-02-06T13:24:14.460Z,98858.00
2024-02-06T13:26:43.848Z,98866.00
2024-02-06T13:29:13.210Z,98873.00
2024-02-06T13:31:42.904Z,98872.00
2024-02-06T13:34:12.554Z,98865.00
2024-02-06T13:36:41.999Z,98860.00
2024-02-06T13:39:12.797Z,98871.00
2024-02-06T13:41:42.248Z,98866.00
2024-02-06T13:44:12.340Z,98865.00
2024-02-06T13:46:42.048Z,98865.00
2024-02-06T13:49:11.601Z,98867.00
2024-02-06T13:51:41.057Z,98867.00
2024-02-06T13:54:10.523Z,98874.00
2024-02-06T13:56:46.522Z,98866.00
2024-02-06T13:59:15.856Z,98872.00
2024-02-06T14:01:47.365Z,98878.00
2024-02-06T14:04:16.857Z,98862.00
2024-02-06T14:06:46.511Z,98869.00
2024-02-06T14:09:15.939Z,98873.00
2024-02-06T14:11:45.304Z,98873.00
2024-02-06T14:14:20.813Z,98873.00
2024-02-06T14:16:50.064Z,98875.00
2024-02-06T14:19:19.393Z,98878.00
2024-02-06T14:21:49.771Z,98879.00
2024-02-06T14:24:19.156Z,98884.00
2024-02-06T14:26:48.455Z,98884.00
2024-02-06T14:29:17.950Z,98880.00
2024-02-06T14:31:50.483Z,98884.00
2024-02-06T14:34:20.123Z,98879.00
2024-02-06T14:36:49.635Z,98888.00
2024-02-06T14:39:19.033Z,98888.00
2024-02-06T14:41:51.357Z,98894.00
2024-02-06T14:44:20.673Z,98898.00
2024-02-06T14:46:50.123Z,98902.00
2024-02-06T14:49:19.762Z,98908.00
2024-02-06T14:51:49.145Z,98900.00
2024-02-06T14:54:18.426Z,98899.00
2024-02-06T14:56:51.137Z,98902.00
2024-02-06T14:59:20.501Z,98908.00
2024-02-06T15:01:49.880Z,98902.00
2024-02-06T15:04:19.351Z,98902.00
2024-02-06T15:06:48.680Z,98904.00
2024-02-06T15:09:21.541Z,98902.00
2024-02-06T15:11:51.015Z,98906.00
2024-02-06T15:14:20.399Z,98902.00
2024-02-06T15:16:49.741Z,98913.00
2024-02-06T15:19:22.699Z,98906.00
2024-02-06T15:21:52.790Z,98908.00
2024-02-06T15:24:26.539Z,98900.00
2024-02-06T15:27:03.789Z,98905.00
2024-02-06T15:29:33.132Z,98900.00
2024-02-06T15:32:02.736Z,98911.00
2024-02-06T15:34:32.452Z,98911.00
2024-02-06T15:37:05.423Z,98912.00
2024-02-06T15:39:35.032Z,98916.00
2024-02-06T15:42:04.471Z,98915.00
2024-02-06T15:44:33.805Z,98922.00
2024-02-06T15:47:03.163Z,98923.00
2024-02-06T15:49:32.569Z,98921.00
2024-02-06T15:52:04.940Z,98913.00
2024-02-06T15:54:36.430Z,98922.00
2024-02-06T15:57:06.183Z,98916.00
2024-02-06T15:59:35.633Z,98914.00
2024-02-06T16:02:05.154Z,98913.00
2024-02-06T16:04:34.541Z,98915.00
2024-02-06T16:07:05.044Z,98909.00
2024-02-06T16:09:34.407Z,98903.00
2024-02-06T16:12:05.805Z,98910.00
2024-02-06T16:14:36.107Z,98899.00
2024-02-06T16:17:06.414Z,98897.00
2024-02-06T16:19:40.623Z,98896.00
2024-02-06T16:22:10.774Z,98898.00
2024-02-06T16:24:40.296Z,98899.00
2024-02-06T16:27:09.703Z,98906.00
2024-02-06T16:29:39.050Z,98894.00
2024-02-06T16:32:08.597Z,98885.00
2024-02-06T16:34:39.897Z,98889.00
2024-02-06T16:37:11.699Z,98883.00
2024-02-06T16:39:40.992Z,98872.00
2024-02-06T16:42:11.160Z,98878.00
2024-02-06T16:44:40.752Z,98874.00
2024-02-06T16:47:10.146Z,98881.00
2024-02-06T16:49:39.572Z,98875.00
2024-02-06T16:52:10.154Z,98876.00
2024-02-06T16:54:39.705Z,98870.00
2024-02-06T16:57:09.019Z,98871.00
2024-02-06T16:59:38.223Z,98870.00
2024-02-06T17:02:08.268Z,98869.00
2024-02-06T17:04:39.516Z,98864.00
2024-02-06T17:07:08.942Z,98865.00
2024-02-06T17:09:38.315Z,98858.00
2024-02-06T17:12:08.280Z,98866.00
2024-02-06T17:14:37.552Z,98863.00
2024-02-06T17:17:08.046Z,98863.00
2024-02-06T17:19:37.730Z,98864.00
2024-02-06T17:22:07.238Z,98859.00
2024-02-06T17:24:36.853Z,98859.00
2024-02-06T17:27:07.587Z,98846.00
2024-02-06T17:29:37.081Z,98850.00
2024-02-06T17:32:06.868Z,98844.00
2024-02-06T17:34:36.815Z,98846.00
2024-02-06T17:37:08.448Z,98849.00
2024-02-06T17:39:39.028Z,98844.00
2024-02-06T17:42:08.730Z,98846.00
2024-02-06T17:44:38.055Z,98838.00
2024-02-06T17:47:07.692Z,98843.00
2024-02-06T17:49:37.028Z,98840.00
2024-02-06T17:52:08.213Z,98823.00
2024-02-06T17:54:37.591Z,98828.00
2024-02-06T17:57:07.191Z,98831.00
2024-02-06T17:59:36.564Z,98824.00
2024-02-06T18:02:06.196Z,98823.00
2024-02-06T18:04:35.639Z,98816.00
2024-02-06T18:07:05.671Z,98820.00
2024-02-06T18:09:35.843Z,98816.00
2024-02-06T18:12:05.433Z,98806.00
2024-02-06T18:14:35.465Z,98807.00
2024-02-06T18:17:20.240Z,98800.00
2024-02-06T18:19:52.757Z,98796.00
2024-02-06T18:22:22.323Z,98804.00
2024-02-06T18:24:51.551Z,98798.00
2024-02-06T18:27:20.901Z,98796.00
2024-02-06T18:29:50.296Z,98786.00
2024-02-06T18:32:19.573Z,98791.00
2024-02-06T18:34:49.096Z,98792.00
2024-02-06T18:37:18.667Z,98782.00
2024-02-06T18:39:48.000Z,98792.00
2024-02-06T18:42:17.297Z,98782.00
2024-02-06T18:44:48.041Z,98780.00
2024-02-06T18:47:17.536Z,98778.00
2024-02-06T18:49:46.906Z,98784.00
2024-02-06T18:52:16.542Z,98779.00
2024-02-06T18:54:52.473Z,98783.00
2024-02-06T18:57:22.437Z,98780.00
2024-02-06T18:59:51.740Z,98781.00
2024-02-06T19:02:20.962Z,98778.00
2024-02-06T19:04:50.659Z,98768.00
2024-02-06T19:07:20.916Z,98770.00
2024-02-06T19:09:50.380Z,98767.00
2024-02-06T19:12:22.597Z,98761.00
2024-02-06T19:14:51.908Z,98760.00
2024-02-06T19:17:21.599Z,98762.00
2024-02-06T19:19:51.548Z,98761.00
2024-02-06T19:22:21.755Z,98762.00
2024-02-06T19:24:50.984Z,98760.00
2024-02-06T19:27:20.280Z,98755.00
2024-02-06T19:29:49.540Z,98757.00
2024-02-06T19:32:18.831Z,98753.00
2024-02-06T19:34:48.337Z,98754.00
2024-02-06T19:37:18.027Z,98753.00
2024-02-06T19:39:47.288Z,98757.00
2024-02-06T19:42:16.624Z,98757.00
2024-02-06T19:44:46.059Z,98751.00
2024-02-06T19:47:15.483Z,98752.00
2024-02-06T19:49:45.305Z,98755.00
2024-02-06T19:52:14.749Z,98749.00
2024-02-06T19:54:44.524Z,98745.00
2024-02-06T19:57:13.879Z,98757.00
2024-02-06T19:59:43.214Z,98753.00
2024-02-06T20:02:12.592Z,98750.00
2024-02-06T20:04:42.133Z,98740.00
2024-02-06T20:07:11.478Z,98746.00
2024-02-06T20:09:40.919Z,98742.00
2024-02-06T20:12:10.890Z,98739.00
2024-02-06T20:14:40.172Z,98740.00
2024-02-06T20:17:09.398Z,98746.00
2024-02-06T20:19:40.820Z,98732.00
2024-02-06T20:22:11.364Z,98732.00
2024-02-06T20:24:40.669Z,98736.00
2024-02-06T20:27:10.563Z,98737.00
2024-02-06T20:29:40.205Z,98740.00
2024-02-06T20:32:10.611Z,98740.00
2024-02-06T20:34:41.306Z,98739.00
2024-02-06T20:37:10.893Z,98746.00
2024-02-06T20:39:40.291Z,98744.00
2024-02-06T20:42:10.134Z,98742.00
2024-02-06T20:44:39.376Z,98738.00
2024-02-06T20:47:08.674Z,98739.00
2024-02-06T20:49:38.173Z,98736.00
2024-02-06T20:52:08.101Z,98742.00
2024-02-06T20:54:37.710Z,98735.00
2024-02-06T20:57:07.745Z,98738.00
2024-02-06T20:59:37.100Z,98744.00
2024-02-06T21:02:06.608Z,98747.00
2024-02-06T21:04:36.228Z,98748.00
2024-02-06T21:07:06.383Z,98748.00
2024-02-06T21:09:35.722Z,98747.00
2024-02-06T21:12:05.139Z,98749.00
2024-02-06T21:14:37.911Z,98745.00
2024-02-06T21:17:07.458Z,98745.00
2024-02-06T21:19:36.906Z,98747.00
2024-02-06T21:22:06.590Z,98744.00
2024-02-06T21:24:38.704Z,98742.00
2024-02-06T21:27:08.141Z,98751.00
2024-02-06T21:29:38.624Z,98752.00
2024-02-06T21:32:08.450Z,98748.00
2024-02-06T21:34:37.998Z,98755.00
2024-02-06T21:37:07.740Z,98756.00
2024-02-06T21:39:37.042Z,98761.00
2024-02-06T21:42:11.682Z,98763.00
2024-02-06T21:44:41.071Z,98767.00
2024-02-06T21:47:13.312Z,98766.00
2024-02-06T21:49:47.694Z,98769.00
2024-02-06T21:52:19.419Z,98773.00
2024-02-06T21:54:48.755Z,98773.00
2024-02-06T21:57:26.365Z,98783.00
2024-02-06T21:59:55.643Z,98776.00
2024-02-06T22:02:24.953Z,98782.00
2024-02-06T22:04:54.798Z,98779.00
2024-02-06T22:07:24.213Z,98783.00
2024-02-06T22:09:55.686Z,98791.00
2024-02-06T22:12:24.992Z,98794.00
2024-02-06T22:14:54.522Z,98792.00
2024-02-06T22:17:24.266Z,98798.00
2024-02-06T22:19:54.062Z,98804.00
2024-02-06T22:22:26.701Z,98810.00
2024-02-06T22:24:56.059Z,98812.00
2024-02-06T22:27:25.396Z,98815.00
2024-02-06T22:30:00.975Z,98821.00
2024-02-06T22:32:32.068Z,98825.00
2024-02-06T22:35:01.671Z,98827.00
2024-02-06T22:37:31.018Z,98841.00
2024-02-06T22:40:02.207Z,98833.00
2024-02-06T22:42:31.857Z,98836.00
2024-02-06T22:45:01.119Z,98829.00
2024-02-06T22:47:30.552Z,98836.00
2024-02-06T22:50:00.017Z,98842.00
2024-02-06T22:52:29.348Z,98843.00
2024-02-06T22:54:58.674Z,98844.00
2024-02-06T22:57:28.041Z,98850.00
2024-02-06T22:59:57.370Z,98851.00
2024-02-06T23:02:27.587Z,98864.00
2024-02-06T23:04:57.587Z,98857.00
2024-02-06T23:07:27.100Z,98871.00
2024-02-06T23:09:56.501Z,98873.00
2024-02-06T23:12:28.388Z,98868.00
2024-02-06T23:15:00.850Z,98874.00
2024-02-06T23:17:30.247Z,98864.00
2024-02-06T23:19:59.683Z,98867.00
2024-02-06T23:22:29.072Z,98868.00
2024-02-06T23:24:58.507Z,98871.00
2024-02-06T23:27:28.280Z,98876.00
2024-02-06T23:29:57.574Z,98884.00
2024-02-06T23:32:30.135Z,98884.00
2024-02-06T23:34:59.570Z,98877.00
2024-02-06T23:37:29.178Z,98887.00
2024-02-06T23:39:59.210Z,98892.00
2024-02-06T23:42:28.562Z,98894.00
2024-02-06T23:44:57.870Z,98898.00
2024-02-06T23:47:27.285Z,98892.00
2024-02-06T23:50:00.171Z,98895.00
2024-02-06T23:52:30.086Z,98897.00
2024-02-06T23:54:59.993Z,98899.00
2024-02-06T23:57:29.303Z,98907.00
2024-02-06T23:59:58.778Z,98904.00
